createdAt,value
2023-03-30T00:01:21.636Z,92.77
2023-03-30T00:03:50.296Z,91.17
2023-03-30T00:06:21.913Z,95.47
2023-03-30T00:08:53.213Z,98.73
2023-03-30T00:11:23.099Z,95.40
2023-03-30T00:13:51.521Z,94.27
2023-03-30T00:16:21.736Z,95.97
2023-03-30T00:18:50.498Z,91.03
2023-03-30T00:21:20.633Z,94.77
2023-03-30T00:23:48.893Z,95.90
2023-03-30T00:26:17.558Z,100.90
2023-03-30T00:28:45.338Z,100.63
2023-03-30T00:31:12.949Z,102.43
2023-03-30T00:33:46.525Z,103.40
2023-03-30T00:36:16.221Z,101.17
2023-03-30T00:38:45.450Z,107.47
2023-03-30T00:41:13.247Z,105.50
2023-03-30T00:43:58.114Z,102.27
2023-03-30T00:46:25.835Z,103.17
2023-03-30T00:48:58.209Z,108.10
2023-03-30T00:51:28.661Z,108.57
2023-03-30T00:54:01.016Z,103.87
2023-03-30T00:56:31.309Z,105.67
2023-03-30T00:58:59.238Z,105.20
2023-03-30T01:01:28.670Z,105.17
2023-03-30T01:04:00.809Z,103.47
2023-03-30T01:06:30.018Z,106.80
2023-03-30T01:08:58.988Z,109.23
2023-03-30T01:11:27.761Z,108.57
2023-03-30T01:13:59.389Z,108.97
2023-03-30T01:16:33.517Z,107.80
2023-03-30T01:19:19.854Z,105.03
2023-03-30T01:22:36.808Z,103.63
2023-03-30T01:25:49.200Z,98.13
2023-03-30T01:28:28.495Z,100.37
2023-03-30T01:31:12.685Z,99.00
2023-03-30T01:34:03.739Z,101.23
2023-03-30T01:36:57.794Z,100.30
2023-03-30T01:39:39.692Z,101.40
2023-03-30T01:42:14.410Z,103.33
2023-03-30T01:44:48.246Z,103.27
2023-03-30T01:47:20.122Z,111.00
2023-03-30T01:49:57.319Z,104.40
2023-03-30T01:52:31.839Z,105.17
2023-03-30T01:55:04.624Z,107.73
2023-03-30T01:57:38.823Z,105.10
2023-03-30T02:00:13.394Z,109.50
2023-03-30T02:02:45.140Z,110.47
2023-03-30T02:05:18.043Z,112.83
2023-03-30T02:07:50.823Z,103.37
2023-03-30T02:10:22.275Z,104.53
2023-03-30T02:12:52.112Z,107.40
2023-03-30T02:15:20.676Z,105.03
2023-03-30T02:17:49.345Z,104.07
2023-03-30T02:20:18.548Z,102.87
2023-03-30T02:22:47.258Z,103.17
2023-03-30T02:25:15.623Z,106.93
2023-03-30T02:27:44.796Z,105.83
2023-03-30T02:30:13.178Z,108.50
2023-03-30T02:32:43.498Z,111.97
2023-03-30T02:35:31.671Z,110.10
2023-03-30T02:38:17.639Z,111.57
2023-03-30T02:40:55.089Z,113.03
2023-03-30T02:43:32.861Z,107.73
2023-03-30T02:46:16.764Z,109.77
2023-03-30T02:48:56.210Z,113.50
2023-03-30T02:51:36.847Z,107.17
2023-03-30T02:54:15.917Z,110.67
2023-03-30T02:56:48.274Z,106.87
2023-03-30T02:59:20.958Z,99.97
2023-03-30T03:01:54.226Z,98.23
2023-03-30T03:04:23.570Z,104.93
2023-03-30T03:06:52.940Z,99.97
2023-03-30T03:09:21.023Z,102.33
2023-03-30T03:11:48.754Z,101.30
2023-03-30T03:14:17.770Z,103.03
2023-03-30T03:16:45.487Z,100.20
2023-03-30T03:19:13.152Z,98.50
2023-03-30T03:21:40.925Z,102.00
2023-03-30T03:24:08.822Z,98.27
2023-03-30T03:26:36.642Z,96.83
2023-03-30T03:29:04.298Z,102.27
2023-03-30T03:31:33.301Z,102.13
2023-03-30T03:34:01.152Z,101.50
2023-03-30T03:36:28.842Z,102.57
2023-03-30T03:38:56.503Z,99.63
2023-03-30T03:41:24.113Z,100.00
2023-03-30T03:43:51.834Z,93.60
2023-03-30T03:46:19.507Z,97.43
2023-03-30T03:48:48.498Z,97.73
2023-03-30T03:51:16.481Z,97.63
2023-03-30T03:53:44.106Z,95.67
2023-03-30T03:56:12.645Z,98.20
2023-03-30T03:58:40.521Z,90.13
2023-03-30T04:01:08.333Z,92.97
2023-03-30T04:03:36.262Z,91.60
2023-03-30T04:06:05.626Z,92.07
2023-03-30T04:08:33.493Z,88.10
2023-03-30T04:11:07.964Z,89.27
2023-03-30T04:13:36.006Z,89.77
2023-03-30T04:16:03.735Z,91.67
2023-03-30T04:18:33.465Z,93.30
2023-03-30T04:21:03.339Z,92.03
2023-03-30T04:23:33.710Z,87.23
2023-03-30T04:26:02.527Z,88.53
2023-03-30T04:28:31.718Z,86.60
2023-03-30T04:31:00.371Z,85.63
2023-03-30T04:33:28.830Z,87.83
2023-03-30T04:35:56.875Z,81.80
2023-03-30T04:38:24.520Z,87.53
2023-03-30T04:40:53.975Z,86.63
2023-03-30T04:43:23.441Z,84.77
2023-03-30T04:45:51.843Z,86.67
2023-03-30T04:48:20.703Z,91.90
2023-03-30T04:50:50.664Z,83.67
2023-03-30T04:53:19.633Z,87.07
2023-03-30T04:55:49.909Z,87.20
2023-03-30T04:58:19.257Z,83.97
2023-03-30T05:00:47.363Z,86.97
2023-03-30T05:03:15.156Z,87.10
2023-03-30T05:05:43.166Z,88.10
2023-03-30T05:08:10.761Z,84.57
2023-03-30T05:10:38.559Z,86.60
2023-03-30T05:13:06.908Z,90.60
2023-03-30T05:15:35.934Z,85.73
2023-03-30T05:18:03.603Z,86.80
2023-03-30T05:20:31.450Z,89.00
2023-03-30T05:22:59.201Z,83.97
2023-03-30T05:25:27.225Z,88.83
2023-03-30T05:27:54.841Z,88.87
2023-03-30T05:30:22.467Z,88.13
2023-03-30T05:32:51.471Z,87.43
2023-03-30T05:35:19.089Z,88.10
2023-03-30T05:37:46.682Z,83.50
2023-03-30T05:40:14.461Z,85.23
2023-03-30T05:42:42.224Z,87.00
2023-03-30T05:45:11.125Z,87.87
2023-03-30T05:47:38.722Z,87.87
2023-03-30T05:50:09.311Z,87.57
2023-03-30T05:52:37.013Z,88.93
2023-03-30T05:55:05.010Z,87.67
2023-03-30T05:57:33.122Z,85.70
2023-03-30T06:00:00.793Z,88.37
2023-03-30T06:02:28.434Z,84.73
2023-03-30T06:04:56.230Z,87.20
2023-03-30T06:07:25.384Z,85.30
2023-03-30T06:09:53.179Z,86.73
2023-03-30T06:12:21.226Z,85.57
2023-03-30T06:14:48.826Z,88.00
2023-03-30T06:17:16.488Z,83.97
2023-03-30T06:19:44.135Z,84.10
2023-03-30T06:22:11.722Z,83.57
2023-03-30T06:24:40.971Z,86.27
2023-03-30T06:27:09.190Z,84.27
2023-03-30T06:29:36.834Z,84.53
2023-03-30T06:32:04.957Z,85.57
2023-03-30T06:34:32.753Z,81.07
2023-03-30T06:37:01.152Z,80.43
2023-03-30T06:39:29.656Z,78.03
2023-03-30T06:41:58.615Z,83.50
2023-03-30T06:44:27.137Z,79.97
2023-03-30T06:46:54.712Z,80.17
2023-03-30T06:49:22.782Z,73.43
2023-03-30T06:51:50.445Z,78.13
2023-03-30T06:54:20.159Z,72.53
2023-03-30T06:56:47.823Z,73.10
2023-03-30T06:59:17.407Z,70.33
2023-03-30T07:01:45.664Z,68.53
2023-03-30T07:04:13.345Z,67.53
2023-03-30T07:06:40.979Z,67.60
2023-03-30T07:09:08.825Z,67.70
2023-03-30T07:11:36.550Z,66.93
2023-03-30T07:14:05.465Z,70.83
2023-03-30T07:16:34.517Z,69.73
2023-03-30T07:19:02.352Z,70.57
2023-03-30T07:21:29.946Z,72.27
2023-03-30T07:23:58.108Z,75.87
2023-03-30T07:26:25.796Z,75.43
2023-03-30T07:28:53.380Z,74.43
2023-03-30T07:31:21.873Z,72.83
2023-03-30T07:33:51.851Z,72.90
2023-03-30T07:36:19.976Z,77.43
2023-03-30T07:38:47.736Z,77.50
2023-03-30T07:41:17.910Z,78.20
2023-03-30T07:43:45.895Z,82.50
2023-03-30T07:46:13.617Z,81.53
2023-03-30T07:48:42.129Z,82.13
2023-03-30T07:51:13.537Z,79.27
2023-03-30T07:53:41.994Z,79.93
2023-03-30T07:56:10.462Z,86.37
2023-03-30T07:58:39.110Z,85.60
2023-03-30T08:01:07.047Z,85.53
2023-03-30T08:03:34.878Z,87.97
2023-03-30T08:06:05.515Z,89.37
2023-03-30T08:08:38.747Z,85.93
2023-03-30T08:11:06.931Z,87.33
2023-03-30T08:13:34.551Z,82.97
2023-03-30T08:16:02.682Z,85.30
2023-03-30T08:18:30.423Z,81.93
2023-03-30T08:20:58.135Z,83.80
2023-03-30T08:23:25.887Z,83.50
2023-03-30T08:25:57.768Z,83.20
2023-03-30T08:28:25.874Z,82.67
2023-03-30T08:30:54.567Z,86.80
2023-03-30T08:33:22.997Z,82.40
2023-03-30T08:35:51.300Z,79.53
2023-03-30T08:38:19.594Z,86.17
2023-03-30T08:40:49.645Z,87.23
2023-03-30T08:43:32.722Z,83.00
2023-03-30T08:46:01.695Z,84.43
2023-03-30T08:48:32.421Z,83.50
2023-03-30T08:51:03.435Z,81.43
2023-03-30T08:53:34.649Z,85.03
2023-03-30T08:56:07.782Z,79.57
2023-03-30T08:58:45.388Z,76.63
2023-03-30T09:01:19.803Z,73.37
2023-03-30T09:04:06.427Z,75.10
2023-03-30T09:06:46.883Z,77.23
2023-03-30T09:09:17.863Z,73.47
2023-03-30T09:11:47.663Z,71.10
2023-03-30T09:14:30.129Z,75.83
2023-03-30T09:17:02.373Z,73.37
2023-03-30T09:19:36.368Z,69.33
2023-03-30T09:22:07.021Z,70.00
2023-03-30T09:24:35.658Z,68.53
2023-03-30T09:27:10.820Z,66.73
2023-03-30T09:29:47.573Z,66.57
2023-03-30T09:32:25.666Z,66.73
2023-03-30T09:35:00.235Z,67.17
2023-03-30T09:37:29.824Z,72.23
2023-03-30T09:39:58.997Z,68.47
2023-03-30T09:42:34.907Z,66.20
2023-03-30T09:45:12.658Z,70.83
2023-03-30T09:47:42.400Z,69.17
2023-03-30T09:50:12.278Z,65.63
2023-03-30T09:52:41.678Z,66.30
2023-03-30T09:55:34.353Z,62.37
2023-03-30T09:58:13.671Z,60.67
2023-03-30T10:00:42.971Z,63.53
2023-03-30T10:03:21.826Z,62.97
2023-03-30T10:06:03.122Z,61.67
2023-03-30T10:08:31.304Z,60.87
2023-03-30T10:11:01.202Z,61.57
2023-03-30T10:13:33.316Z,60.50
2023-03-30T10:16:07.833Z,57.70
2023-03-30T10:18:41.685Z,57.33
2023-03-30T10:21:19.371Z,57.73
2023-03-30T10:23:59.392Z,57.63
2023-03-30T10:26:30.583Z,55.47
2023-03-30T10:29:03.181Z,51.47
2023-03-30T10:31:36.715Z,48.67
2023-03-30T10:34:06.525Z,50.40
2023-03-30T10:36:40.548Z,51.63
2023-03-30T10:39:14.436Z,51.73
2023-03-30T10:41:43.262Z,51.93
2023-03-30T10:44:23.404Z,52.20
2023-03-30T10:46:55.757Z,51.50
2023-03-30T10:49:38.567Z,47.37
2023-03-30T10:52:13.679Z,49.93
2023-03-30T10:54:46.080Z,50.80
2023-03-30T10:57:16.681Z,49.43
2023-03-30T11:00:18.307Z,50.17
2023-03-30T11:02:55.600Z,48.47
2023-03-30T11:05:32.405Z,47.67
2023-03-30T11:08:05.083Z,47.23
2023-03-30T11:10:36.767Z,46.97
2023-03-30T11:13:07.129Z,45.67
2023-03-30T11:15:40.508Z,45.20
2023-03-30T11:18:15.101Z,45.27
2023-03-30T11:20:47.028Z,44.77
2023-03-30T11:23:21.443Z,43.93
2023-03-30T11:25:58.926Z,42.43
2023-03-30T11:28:53.947Z,42.30
2023-03-30T11:31:40.193Z,43.10
2023-03-30T11:34:20.406Z,41.30
2023-03-30T11:36:55.942Z,42.03
2023-03-30T11:39:32.628Z,41.90
2023-03-30T11:42:08.328Z,41.30
2023-03-30T11:44:36.139Z,41.33
2023-03-30T11:47:18.394Z,41.37
2023-03-30T11:50:02.228Z,41.83
2023-03-30T11:52:34.391Z,40.23
2023-03-30T11:55:19.207Z,39.00
2023-03-30T11:57:54.041Z,38.23
2023-03-30T12:00:32.268Z,38.30
2023-03-30T12:03:14.252Z,38.20
2023-03-30T12:05:47.188Z,38.13
2023-03-30T12:08:30.688Z,38.37
2023-03-30T12:11:07.384Z,38.50
2023-03-30T12:13:44.777Z,36.70
2023-03-30T12:16:25.592Z,38.77
2023-03-30T12:19:06.256Z,38.90
2023-03-30T12:21:42.372Z,37.27
2023-03-30T12:24:17.844Z,38.50
2023-03-30T12:26:58.237Z,36.73
2023-03-30T12:32:26.943Z,34.87
2023-03-30T12:34:58.249Z,34.20
2023-03-30T12:37:33.559Z,35.17
2023-03-30T12:40:06.715Z,36.20
2023-03-30T12:42:36.602Z,35.87
2023-03-30T12:45:21.147Z,34.00
2023-03-30T12:48:04.234Z,33.97
2023-03-30T12:50:39.492Z,33.70
2023-03-30T12:53:25.959Z,33.60
2023-03-30T12:56:04.517Z,33.33
2023-03-30T12:59:13.856Z,33.37
2023-03-30T13:02:06.281Z,32.70
2023-03-30T13:04:37.578Z,34.10
2023-03-30T13:07:07.895Z,33.17
2023-03-30T13:09:54.717Z,31.03
2023-03-30T13:12:31.250Z,31.47
2023-03-30T13:15:02.116Z,31.80
2023-03-30T13:17:48.980Z,30.60
2023-03-30T13:20:28.236Z,31.60
2023-03-30T13:23:06.416Z,30.87
2023-03-30T13:25:45.530Z,30.83
2023-03-30T13:28:35.346Z,31.30
2023-03-30T13:31:13.494Z,30.63
2023-03-30T13:33:47.035Z,31.23
2023-03-30T13:36:18.826Z,30.97
2023-03-30T13:39:13.556Z,28.93
2023-03-30T13:41:58.130Z,29.57
2023-03-30T13:44:42.008Z,31.50
2023-03-30T13:47:28.524Z,31.13
2023-03-30T13:50:00.687Z,30.03
2023-03-30T13:52:33.039Z,29.50
2023-03-30T13:55:02.945Z,30.93
2023-03-30T13:57:37.170Z,34.40
2023-03-30T14:00:24.660Z,29.40
2023-03-30T14:02:52.803Z,31.10
2023-03-30T14:05:23.058Z,27.07
2023-03-30T14:07:55.131Z,29.40
2023-03-30T14:10:22.968Z,30.27
2023-03-30T14:12:55.898Z,30.30
2023-03-30T14:15:26.915Z,30.47
2023-03-30T14:17:56.760Z,29.70
2023-03-30T14:20:53.018Z,28.60
2023-03-30T14:23:29.593Z,30.10
2023-03-30T14:25:59.819Z,27.50
2023-03-30T14:28:30.606Z,29.00
2023-03-30T14:30:59.649Z,27.93
2023-03-30T14:33:27.830Z,28.63
2023-03-30T14:35:57.361Z,28.47
2023-03-30T14:38:28.290Z,27.57
2023-03-30T14:40:56.190Z,28.60
2023-03-30T14:43:26.662Z,27.77
2023-03-30T14:45:58.852Z,30.73
2023-03-30T14:48:31.857Z,29.27
2023-03-30T14:51:00.062Z,28.60
2023-03-30T14:53:30.092Z,27.03
2023-03-30T14:56:00.618Z,29.03
2023-03-30T14:58:31.699Z,28.33
2023-03-30T15:01:09.259Z,28.77
2023-03-30T15:03:39.579Z,29.27
2023-03-30T15:06:09.173Z,33.37
2023-03-30T15:08:40.280Z,31.30
2023-03-30T15:11:10.759Z,29.97
2023-03-30T15:13:41.730Z,33.73
2023-03-30T15:16:16.633Z,31.20
2023-03-30T15:18:44.716Z,30.97
2023-03-30T15:21:14.662Z,30.73
2023-03-30T15:23:45.959Z,31.50
2023-03-30T15:26:13.934Z,30.33
2023-03-30T15:28:46.610Z,30.13
2023-03-30T15:31:16.516Z,30.03
2023-03-30T15:33:46.353Z,32.77
2023-03-30T15:36:18.391Z,30.90
2023-03-30T15:38:50.492Z,29.20
2023-03-30T15:41:22.279Z,30.63
2023-03-30T15:43:57.841Z,27.93
2023-03-30T15:46:28.847Z,28.53
2023-03-30T15:49:00.167Z,31.60
2023-03-30T15:51:33.031Z,30.70
2023-03-30T15:54:04.051Z,50.73
2023-03-30T15:56:35.630Z,37.43
2023-03-30T15:59:03.442Z,31.90
2023-03-30T16:01:50.060Z,33.40
2023-03-30T16:04:19.685Z,32.57
2023-03-30T16:06:47.586Z,32.80
2023-03-30T16:09:15.800Z,32.60
2023-03-30T16:11:45.015Z,32.90
2023-03-30T16:14:15.748Z,33.13
2023-03-30T16:16:44.995Z,36.00
2023-03-30T16:19:13.476Z,31.90
2023-03-30T16:21:42.514Z,39.00
2023-03-30T16:24:11.692Z,30.57
2023-03-30T16:26:39.322Z,33.27
2023-03-30T16:29:12.009Z,31.20
2023-03-30T16:31:39.938Z,34.80
2023-03-30T16:34:08.931Z,30.93
2023-03-30T16:36:36.537Z,31.30
2023-03-30T16:39:05.771Z,33.63
2023-03-30T16:41:33.441Z,34.40
2023-03-30T16:44:01.153Z,34.87
2023-03-30T16:46:28.821Z,39.07
2023-03-30T16:48:56.605Z,38.20
2023-03-30T16:51:25.668Z,41.60
2023-03-30T16:53:53.417Z,37.53
2023-03-30T16:56:21.640Z,34.63
2023-03-30T16:58:49.222Z,35.27
2023-03-30T17:01:18.645Z,42.70
2023-03-30T17:03:47.098Z,38.87
2023-03-30T17:06:16.820Z,36.60
2023-03-30T17:08:46.045Z,43.17
2023-03-30T17:11:15.020Z,40.97
2023-03-30T17:13:43.489Z,39.03
2023-03-30T17:16:13.166Z,42.43
2023-03-30T17:18:40.936Z,43.03
2023-03-30T17:21:10.517Z,33.67
2023-03-30T17:23:38.125Z,50.37
2023-03-30T17:26:07.692Z,39.23
2023-03-30T17:28:38.235Z,41.43
2023-03-30T17:31:11.047Z,36.37
2023-03-30T17:33:39.087Z,46.07
2023-03-30T17:36:13.733Z,39.43
2023-03-30T17:38:43.461Z,35.73
2023-03-30T17:41:14.545Z,35.43
2023-03-30T17:43:43.367Z,40.17
2023-03-30T17:46:12.321Z,36.33
2023-03-30T17:48:40.140Z,36.57
2023-03-30T17:51:08.324Z,40.00
2023-03-30T17:53:36.907Z,37.83
2023-03-30T17:56:05.124Z,49.00
2023-03-30T17:58:35.761Z,49.93
2023-03-30T18:01:05.516Z,43.13
2023-03-30T18:03:34.002Z,41.43
2023-03-30T18:06:02.981Z,47.17
2023-03-30T18:08:31.310Z,45.07
2023-03-30T18:11:00.343Z,41.17
2023-03-30T18:13:30.433Z,44.17
2023-03-30T18:16:01.206Z,46.43
2023-03-30T18:18:30.794Z,39.93
2023-03-30T18:21:02.442Z,43.93
2023-03-30T18:23:31.394Z,42.03
2023-03-30T18:25:59.040Z,46.23
2023-03-30T18:28:28.322Z,44.70
2023-03-30T18:30:57.568Z,43.50
2023-03-30T18:33:27.082Z,55.00
2023-03-30T18:35:56.686Z,49.00
2023-03-30T18:38:25.522Z,43.83
2023-03-30T18:40:57.738Z,41.70
2023-03-30T18:43:26.947Z,41.73
2023-03-30T18:46:02.472Z,47.27
2023-03-30T18:48:31.918Z,36.30
2023-03-30T18:50:59.596Z,35.97
2023-03-30T18:53:28.525Z,44.00
2023-03-30T18:55:58.396Z,46.00
2023-03-30T18:58:27.712Z,38.57
2023-03-30T19:00:56.133Z,43.80
2023-03-30T19:03:24.763Z,40.53
2023-03-30T19:05:54.126Z,48.47
2023-03-30T19:08:23.408Z,52.10
2023-03-30T19:10:52.731Z,39.27
2023-03-30T19:13:21.883Z,46.30
2023-03-30T19:15:50.715Z,39.83
2023-03-30T19:18:19.022Z,38.80
2023-03-30T19:20:49.250Z,42.37
2023-03-30T19:23:18.811Z,38.40
2023-03-30T19:25:48.754Z,45.73
2023-03-30T19:28:18.403Z,46.80
2023-03-30T19:30:46.764Z,40.87
2023-03-30T19:33:16.511Z,40.20
2023-03-30T19:35:45.717Z,39.07
2023-03-30T19:38:13.539Z,40.10
2023-03-30T19:40:44.219Z,48.73
2023-03-30T19:43:12.165Z,40.77
2023-03-30T19:45:41.920Z,53.10
2023-03-30T19:48:10.643Z,50.70
2023-03-30T19:50:40.629Z,53.83
2023-03-30T19:53:08.834Z,41.53
2023-03-30T19:55:37.613Z,41.83
2023-03-30T19:58:07.103Z,52.67
2023-03-30T20:00:34.877Z,45.27
2023-03-30T20:03:02.753Z,41.53
2023-03-30T20:05:30.463Z,42.03
2023-03-30T20:07:58.761Z,39.40
2023-03-30T20:10:27.025Z,45.23
2023-03-30T20:12:54.856Z,39.63
2023-03-30T20:15:26.032Z,44.47
2023-03-30T20:17:56.507Z,41.53
2023-03-30T20:20:26.191Z,52.23
2023-03-30T20:22:56.230Z,44.60
2023-03-30T20:25:24.649Z,45.37
2023-03-30T20:27:52.605Z,51.70
2023-03-30T20:30:21.351Z,47.70
2023-03-30T20:33:06.314Z,54.93
2023-03-30T20:35:36.961Z,52.53
2023-03-30T20:38:04.803Z,50.17
2023-03-30T20:40:32.928Z,55.77
2023-03-30T20:43:02.141Z,45.40
2023-03-30T20:45:30.567Z,49.20
2023-03-30T20:48:06.020Z,43.53
2023-03-30T20:50:34.584Z,67.37
2023-03-30T20:53:02.607Z,44.40
2023-03-30T20:55:30.226Z,62.07
2023-03-30T20:57:57.799Z,53.60
2023-03-30T21:00:25.596Z,55.70
2023-03-30T21:02:53.257Z,49.60
2023-03-30T21:05:22.374Z,46.87
2023-03-30T21:07:50.077Z,56.63
2023-03-30T21:10:17.959Z,55.90
2023-03-30T21:12:45.611Z,44.30
2023-03-30T21:15:14.019Z,63.43
2023-03-30T21:17:41.718Z,54.33
2023-03-30T21:20:11.042Z,64.10
2023-03-30T21:22:40.073Z,51.77
2023-03-30T21:25:08.217Z,61.30
2023-03-30T21:27:36.434Z,53.10
2023-03-30T21:30:04.480Z,68.23
2023-03-30T21:32:32.137Z,66.80
2023-03-30T21:34:59.829Z,63.80
2023-03-30T21:37:27.452Z,56.70
2023-03-30T21:39:56.425Z,59.40
2023-03-30T21:42:24.042Z,77.23
2023-03-30T21:44:51.689Z,81.60
2023-03-30T21:47:19.475Z,65.73
2023-03-30T21:49:47.148Z,75.03
2023-03-30T21:52:14.781Z,75.17
2023-03-30T21:54:42.542Z,62.63
2023-03-30T21:57:11.937Z,67.90
2023-03-30T21:59:39.956Z,78.77
2023-03-30T22:02:07.864Z,53.30
2023-03-30T22:04:35.692Z,77.57
2023-03-30T22:07:03.348Z,68.50
2023-03-30T22:09:31.089Z,74.67
2023-03-30T22:11:58.689Z,61.00
2023-03-30T22:14:27.786Z,68.63
2023-03-30T22:16:55.450Z,69.63
2023-03-30T22:19:24.488Z,77.10
2023-03-30T22:21:53.050Z,61.67
2023-03-30T22:24:21.335Z,74.20
2023-03-30T22:26:49.169Z,77.53
2023-03-30T22:29:20.744Z,83.00
2023-03-30T22:31:51.437Z,55.30
2023-03-30T22:34:19.141Z,81.87
2023-03-30T22:36:46.739Z,74.97
2023-03-30T22:39:14.402Z,75.77
2023-03-30T22:41:42.026Z,68.37
2023-03-30T22:44:10.144Z,74.83
2023-03-30T22:46:38.320Z,103.40
2023-03-30T22:49:07.730Z,81.33
2023-03-30T22:51:38.077Z,83.43
2023-03-30T22:54:06.266Z,79.57
2023-03-30T22:56:34.064Z,80.47
2023-03-30T22:59:01.819Z,85.87
2023-03-30T23:01:32.593Z,87.23
2023-03-30T23:04:00.681Z,75.60
2023-03-30T23:06:29.928Z,75.67
2023-03-30T23:08:57.855Z,80.20
2023-03-30T23:11:26.386Z,75.57
2023-03-30T23:13:54.030Z,77.20
2023-03-30T23:16:21.855Z,77.73
2023-03-30T23:18:50.271Z,83.47
2023-03-30T23:21:17.968Z,71.37
2023-03-30T23:23:46.886Z,79.93
2023-03-30T23:26:14.520Z,80.03
2023-03-30T23:28:43.126Z,64.97
2023-03-30T23:31:12.693Z,74.40
2023-03-30T23:33:40.485Z,93.33
2023-03-30T23:36:09.157Z,69.80
2023-03-30T23:38:37.546Z,80.83
2023-03-30T23:41:07.660Z,74.07
2023-03-30T23:43:35.752Z,67.97
2023-03-30T23:46:03.684Z,78.67
2023-03-30T23:48:31.727Z,70.90
2023-03-30T23:50:59.703Z,77.53
2023-03-30T23:53:27.461Z,58.63
2023-03-30T23:55:55.427Z,82.53
2023-03-30T23:58:25.478Z,70.77
